Lookout Mountain, Georgia
Current Conditions -  °F | °C
As of 9:53 PM on Tuesday 25 Nov 2014 (Local Time) from KCHA Reporting Station
Overcast Overcast  
Wind Chill: 47°   Ceiling: 15000
Heat Index: 49°   Visibility: 10mi
Dew Point: 32°   Wind: 6mph
Humidity: 52%   Direction: 340°NNW
Pressure: 30.1"   Gusts: NA
Location:  34.98°N, 85.36°W
Report Text: KCHA 260253Z 34005KT 10SM BKN150 OVC200 09/00 A3010 RMK AO2 SLP194 T00940000 50005
Loading
Personal Weather Stations






























Interactive Weather Map New forecast layout! Learn more

10-Day Weather Forecast

Advertisements
Track Severe Weather on mobile